Time;durP1;ratioP1;P1;durP2;ratioP2;P2;SDS_P1;SDS_P2;PMS_P1;PMS_P2;Temp;Humidity;BMP_temperature;BMP_pressure;BME280_temperature;BME280_humidity;BME280_pressure;Samples;Min_cycle;Max_cycle;Signal;HPM_P1;HPM_P2
2023/08/28 00:01:39;;;;;;;7.20;5.60;;;;;;;19.11;100.00;96818.98;110203;1249;59732;-68
2023/08/28 00:04:10;;;;;;;6.50;5.80;;;;;;;19.09;100.00;96820.38;110263;1242;59675;-68
2023/08/28 00:06:40;;;;;;;8.40;5.40;;;;;;;19.04;100.00;96820.38;110242;1243;71731;-68
2023/08/28 00:09:12;;;;;;;7.20;5.80;;;;;;;19.01;100.00;96819.71;110229;1242;68181;-67
2023/08/28 00:11:42;;;;;;;8.50;5.90;;;;;;;18.99;100.00;96815.75;110191;1242;69307;-65
2023/08/28 00:14:12;;;;;;;6.20;5.30;;;;;;;18.98;100.00;96811.42;110202;1242;59694;-67
2023/08/28 00:16:43;;;;;;;6.40;5.00;;;;;;;18.97;100.00;96814.71;110170;1242;59687;-67
2023/08/28 00:19:13;;;;;;;6.10;5.00;;;;;;;18.98;100.00;96811.46;110206;1241;70422;-67
2023/08/28 00:21:43;;;;;;;7.50;6.10;;;;;;;18.99;99.21;96806.71;110172;1242;69255;-67
2023/08/28 00:24:13;;;;;;;6.60;5.70;;;;;;;19.01;100.00;96801.21;110176;1242;69281;-67
2023/08/28 00:26:43;;;;;;;;;;;;;;;19.00;100.00;96802.24;110217;1240;59743;-66
2023/08/28 00:29:14;;;;;;;7.00;5.20;;;;;;;18.96;100.00;96807.21;110180;1242;59636;-67
2023/08/28 00:31:48;;;;;;;8.60;5.60;;;;;;;18.95;100.00;96807.33;110195;1241;71413;-68
2023/08/28 00:34:21;;;;;;;7.30;5.30;;;;;;;18.95;98.62;96807.33;110216;1241;69675;-68
2023/08/28 00:36:52;;;;;;;6.70;4.80;;;;;;;18.94;99.90;96811.68;110184;1241;68227;-70
2023/08/28 00:39:23;;;;;;;6.90;5.20;;;;;;;18.93;99.57;96810.77;110174;1244;59716;-70
2023/08/28 00:41:55;;;;;;;6.90;5.60;;;;;;;18.89;97.31;96810.50;110220;1241;59666;-68
2023/08/28 00:44:29;;;;;;;6.70;5.70;;;;;;;18.88;98.21;96811.25;110254;1241;71539;-68
2023/08/28 00:47:10;;;;;;;8.10;5.70;;;;;;;18.85;95.97;96807.61;110153;1245;69198;-68
2023/08/28 00:49:43;;;;;;;10.30;6.70;;;;;;;18.85;95.96;96808.55;110210;1243;69388;-68
2023/08/28 00:52:14;;;;;;;9.20;6.80;;;;;;;18.82;96.14;96813.05;110247;1242;59741;-68
2023/08/28 00:54:47;;;;;;;6.90;5.70;;;;;;;18.80;98.79;96815.07;110245;1241;59683;-67
2023/08/28 00:57:18;;;;;;;9.30;6.80;;;;;;;18.79;100.00;96815.95;110266;1242;71386;-68
2023/08/28 00:59:49;;;;;;;7.60;5.70;;;;;;;18.75;100.00;96814.79;110260;1248;69090;-69
2023/08/28 01:02:23;;;;;;;6.00;5.40;;;;;;;18.72;100.00;96813.23;110188;1242;68871;-68
2023/08/28 01:04:58;;;;;;;7.60;5.80;;;;;;;18.70;100.00;96812.77;110208;1240;59698;-68
2023/08/28 01:07:58;;;;;;;6.90;5.40;;;;;;;18.67;100.00;96817.27;110137;1241;59684;-68
2023/08/28 01:10:44;;;;;;;8.50;5.20;;;;;;;18.66;98.96;96814.26;110198;1244;70681;-68
2023/08/28 01:13:43;;;;;;;6.80;5.50;;;;;;;18.65;99.89;96810.50;110234;1242;69204;-68
2023/08/28 01:16:16;;;;;;;7.90;5.70;;;;;;;18.65;100.00;96810.06;110176;1247;68561;-68
2023/08/28 01:18:52;;;;;;;9.20;5.00;;;;;;;18.63;100.00;96805.55;110254;1241;59701;-68
2023/08/28 01:21:25;;;;;;;6.50;5.50;;;;;;;18.60;100.00;96808.59;110166;1244;59658;-68
2023/08/28 01:24:00;;;;;;;6.90;6.10;;;;;;;18.56;100.00;96804.90;110220;1242;71896;-68
2023/08/28 01:26:32;;;;;;;7.10;5.40;;;;;;;18.52;100.00;96804.33;110245;1242;69431;-68
2023/08/28 01:29:06;;;;;;;9.40;6.10;;;;;;;18.50;100.00;96803.20;110202;1242;69421;-68
2023/08/28 01:31:36;;;;;;;7.00;5.80;;;;;;;18.47;100.00;96796.16;110218;1241;59729;-68
2023/08/28 01:34:06;;;;;;;;;;;;;;;18.48;100.00;96797.41;110250;1241;59769;-69
2023/08/28 01:36:48;;;;;;;7.00;5.60;;;;;;;18.50;100.00;96793.70;110198;1243;70640;-69
2023/08/28 01:39:30;;;;;;;6.80;5.00;;;;;;;18.51;100.00;96791.38;110213;1240;68469;-69
2023/08/28 01:42:07;;;;;;;7.70;5.30;;;;;;;18.53;100.00;96787.16;110192;1242;69349;-68
2023/08/28 01:44:41;;;;;;;8.00;5.50;;;;;;;18.55;100.00;96788.84;110186;1242;59699;-67
2023/08/28 01:47:13;;;;;;;6.60;5.30;;;;;;;18.56;100.00;96788.20;110259;1242;59705;-68
2023/08/28 01:49:44;;;;;;;7.70;5.80;;;;;;;18.55;100.00;96786.92;110209;1240;71441;-68
2023/08/28 01:52:19;;;;;;;6.50;5.20;;;;;;;18.50;100.00;96788.23;110225;1242;69730;-69
2023/08/28 01:54:50;;;;;;;8.10;5.70;;;;;;;18.44;100.00;96786.61;110238;1242;68550;-69
2023/08/28 01:57:21;;;;;;;6.10;5.20;;;;;;;18.38;100.00;96786.56;110274;1242;59722;-68
2023/08/28 01:59:52;;;;;;;6.90;5.50;;;;;;;18.35;100.00;96787.25;110193;1244;59733;-69
2023/08/28 02:02:25;;;;;;;8.60;5.70;;;;;;;18.32;100.00;96790.24;110202;1240;71410;-68
2023/08/28 02:04:58;;;;;;;5.80;4.70;;;;;;;18.29;100.00;96791.23;110258;1242;69239;-68
2023/08/28 02:07:31;;;;;;;7.80;5.90;;;;;;;18.27;100.00;96789.78;110206;1245;69572;-68
2023/08/28 02:10:03;;;;;;;7.20;6.00;;;;;;;18.23;100.00;96790.95;110300;1242;59740;-69
2023/08/28 02:12:35;;;;;;;6.70;5.60;;;;;;;18.16;100.00;96793.11;110252;1242;59754;-68
2023/08/28 02:15:07;;;;;;;7.00;5.90;;;;;;;18.10;100.00;96797.73;110190;1245;70818;-68
2023/08/28 02:17:38;;;;;;;7.00;5.40;;;;;;;18.01;100.00;96798.84;110261;1242;69890;-68
2023/08/28 02:20:11;;;;;;;7.10;5.50;;;;;;;17.94;100.00;96799.83;110229;1242;69140;-68
2023/08/28 02:22:42;;;;;;;7.40;4.80;;;;;;;17.90;100.00;96800.13;110222;1242;59770;-68
2023/08/28 02:25:13;;;;;;;6.10;4.40;;;;;;;17.86;100.00;96795.08;110179;1243;59756;-68
2023/08/28 02:27:44;;;;;;;6.50;4.90;;;;;;;17.84;100.00;96791.13;110211;1242;71418;-68
2023/08/28 02:30:17;;;;;;;6.40;5.10;;;;;;;17.80;100.00;96792.20;110217;1242;69223;-69
2023/08/28 02:32:47;;;;;;;6.70;5.00;;;;;;;17.78;100.00;96788.73;110235;1242;68288;-68
2023/08/28 02:35:21;;;;;;;6.00;4.90;;;;;;;17.77;100.00;96791.19;110174;1240;59756;-68
2023/08/28 02:37:56;;;;;;;7.70;4.70;;;;;;;17.78;100.00;96794.77;110218;1242;59704;-68
2023/08/28 02:40:27;;;;;;;6.90;5.10;;;;;;;17.78;100.00;96799.90;110231;1242;70918;-68
2023/08/28 02:43:05;;;;;;;6.90;5.20;;;;;;;17.77;100.00;96804.49;110199;1242;69037;-68
2023/08/28 02:45:41;;;;;;;7.00;4.70;;;;;;;17.77;100.00;96804.00;110124;1245;69289;-68
2023/08/28 02:48:12;;;;;;;8.50;5.40;;;;;;;17.78;100.00;96805.18;110246;1242;59660;-67
2023/08/28 02:50:43;;;;;;;6.50;5.10;;;;;;;17.79;100.00;96807.90;110241;1241;59679;-66
2023/08/28 02:53:15;;;;;;;6.30;4.80;;;;;;;17.80;100.00;96808.65;110182;1245;70818;-67
2023/08/28 02:56:24;;;;;;;7.50;4.80;;;;;;;17.79;100.00;96811.17;110250;1243;68225;-68
2023/08/28 02:58:56;;;;;;;5.10;4.20;;;;;;;17.79;100.00;96814.37;109983;1242;68555;-67
2023/08/28 03:01:34;;;;;;;5.50;4.30;;;;;;;17.78;100.00;96814.27;110168;1242;59709;-66
2023/08/28 03:04:05;;;;;;;6.00;4.20;;;;;;;17.78;100.00;96812.39;110239;1242;59728;-68
2023/08/28 03:06:37;;;;;;;6.00;4.70;;;;;;;17.77;100.00;96810.70;110243;1241;70451;-68
2023/08/28 03:09:14;;;;;;;6.90;5.40;;;;;;;17.74;100.00;96810.69;110267;1242;69082;-69
2023/08/28 03:11:46;;;;;;;6.90;5.30;;;;;;;17.71;100.00;96814.23;110215;1242;69345;-68
2023/08/28 03:14:17;;;;;;;6.50;5.00;;;;;;;17.65;100.00;96818.25;110154;1245;59740;-69
2023/08/28 03:16:48;;;;;;;6.40;5.00;;;;;;;17.62;100.00;96818.27;110206;1242;59637;-68
2023/08/28 03:19:18;;;;;;;6.90;5.60;;;;;;;17.61;100.00;96818.01;110248;1242;71967;-69
2023/08/28 03:21:49;;;;;;;6.20;5.10;;;;;;;17.59;100.00;96816.05;110207;1242;69050;-68
2023/08/28 03:24:19;;;;;;;6.90;4.90;;;;;;;17.58;100.00;96815.11;110204;1242;69299;-69
2023/08/28 03:26:50;;;;;;;6.90;5.40;;;;;;;17.58;100.00;96816.36;110228;1241;59741;-70
2023/08/28 03:29:21;;;;;;;5.30;4.60;;;;;;;17.57;100.00;96814.39;110223;1242;59685;-69
2023/08/28 03:31:51;;;;;;;7.20;5.40;;;;;;;17.54;100.00;96809.50;110237;1241;71962;-69
2023/08/28 03:34:23;;;;;;;8.50;5.50;;;;;;;17.53;100.00;96807.73;110233;1242;69282;-70
2023/08/28 03:36:55;;;;;;;6.70;5.50;;;;;;;17.52;100.00;96810.34;110173;1241;68537;-68
2023/08/28 03:39:25;;;;;;;8.00;5.50;;;;;;;17.53;100.00;96820.21;110173;1243;59712;-69
2023/08/28 03:41:54;;;;;;;6.70;5.40;;;;;;;17.52;100.00;96823.35;110181;1243;60161;-68
2023/08/28 03:44:25;;;;;;;5.90;4.80;;;;;;;17.52;100.00;96823.41;110182;1242;71471;-69
2023/08/28 03:46:56;;;;;;;6.90;5.30;;;;;;;17.52;100.00;96821.01;110172;1244;69122;-67
2023/08/28 03:49:27;;;;;;;7.60;6.10;;;;;;;17.50;100.00;96817.60;110150;1240;69434;-68
2023/08/28 03:51:59;;;;;;;8.00;5.50;;;;;;;17.49;100.00;96820.88;110143;1245;59758;-68
2023/08/28 03:54:28;;;;;;;5.90;4.90;;;;;;;17.47;100.00;96812.64;110185;1242;59720;-67
2023/08/28 03:56:59;;;;;;;9.00;5.70;;;;;;;17.46;100.00;96812.75;110213;1242;71963;-68
2023/08/28 03:59:30;;;;;;;8.50;6.30;;;;;;;17.46;100.00;96816.05;110214;1241;68545;-69
2023/08/28 04:02:02;;;;;;;8.40;6.10;;;;;;;17.45;100.00;96812.46;110201;1242;69749;-69
2023/08/28 04:04:32;;;;;;;6.20;5.20;;;;;;;17.50;100.00;96810.73;110214;1242;59737;-69
2023/08/28 04:07:03;;;;;;;5.90;4.70;;;;;;;17.58;100.00;96812.13;110190;1240;59709;-68
2023/08/28 04:09:33;;;;;;;6.10;5.20;;;;;;;17.68;100.00;96810.52;110206;1241;70726;-69
2023/08/28 04:12:04;;;;;;;6.90;5.00;;;;;;;17.77;100.00;96808.40;110237;1242;69656;-68
2023/08/28 04:14:36;;;;;;;6.40;5.10;;;;;;;17.92;100.00;96812.44;110212;1242;68502;-70
2023/08/28 04:17:06;;;;;;;7.80;5.20;;;;;;;18.08;100.00;96816.95;110167;1245;59792;-69
2023/08/28 04:19:36;;;;;;;6.00;4.50;;;;;;;18.26;100.00;96820.16;110141;1245;59675;-69
2023/08/28 04:22:07;;;;;;;6.00;5.10;;;;;;;18.45;100.00;96825.30;110195;1242;71377;-69
2023/08/28 04:24:36;;;;;;;7.60;4.90;;;;;;;18.64;100.00;96828.61;110159;1245;69432;-69
2023/08/28 04:27:05;;;;;;;6.40;4.90;;;;;;;18.84;100.00;96828.22;110193;1244;69293;-69
2023/08/28 04:29:35;;;;;;;7.90;5.10;;;;;;;19.06;100.00;96827.98;110181;1242;60057;-69
2023/08/28 04:32:05;;;;;;;5.20;4.50;;;;;;;19.28;100.00;96824.84;110222;1242;60003;-70
2023/08/28 04:34:35;;;;;;;;;;;;;;;19.45;100.00;96818.08;110215;1240;71327;-69
2023/08/28 04:37:05;;;;;;;6.30;4.70;;;;;;;19.60;100.00;96817.36;110178;1242;69823;-67
2023/08/28 04:39:36;;;;;;;6.00;5.10;;;;;;;19.79;100.00;96812.27;110222;1244;69289;-69
2023/08/28 04:42:06;;;;;;;5.80;4.70;;;;;;;19.97;100.00;96814.34;110213;1242;59698;-68
2023/08/28 04:44:36;;;;;;;5.90;4.90;;;;;;;20.22;100.00;96812.34;110194;1241;59678;-68
2023/08/28 04:47:06;;;;;;;8.00;5.30;;;;;;;20.52;100.00;96812.99;110155;1243;70460;-68
2023/08/28 04:49:35;;;;;;;6.50;4.40;;;;;;;20.79;99.07;96807.73;110118;1245;69252;-69
2023/08/28 04:52:06;;;;;;;5.70;5.00;;;;;;;20.98;96.73;96804.60;110194;1242;69016;-69
2023/08/28 04:54:36;;;;;;;7.30;5.20;;;;;;;21.15;96.78;96807.85;110194;1240;59696;-69
2023/08/28 04:57:06;;;;;;;7.40;5.70;;;;;;;21.23;94.94;96813.02;110228;1242;60123;-69
2023/08/28 04:59:35;;;;;;;9.20;6.10;;;;;;;21.34;94.67;96811.26;110249;1241;71839;-70
2023/08/28 05:02:05;;;;;;;;;;;;;;;21.51;94.37;96812.23;110202;1242;69638;-68
2023/08/28 05:04:35;;;;;;;8.60;6.10;;;;;;;21.67;92.83;96810.98;110212;1241;69187;-70
2023/08/28 05:07:07;;;;;;;8.20;5.40;;;;;;;21.98;95.36;96807.58;110237;1241;59667;-69
2023/08/28 05:09:37;;;;;;;6.00;4.70;;;;;;;22.37;98.47;96811.28;110286;1242;59726;-69
2023/08/28 05:12:06;;;;;;;7.90;6.90;;;;;;;22.76;95.95;96811.65;110176;1240;70713;-69
2023/08/28 05:14:36;;;;;;;7.90;6.10;;;;;;;22.86;90.56;96814.35;110253;1242;69654;-70
2023/08/28 05:17:07;;;;;;;8.20;6.20;;;;;;;22.87;90.54;96816.23;110220;1242;69292;-71
2023/08/28 05:19:37;;;;;;;7.90;6.00;;;;;;;22.89;87.88;96812.80;110223;1243;59667;-69
2023/08/28 05:22:07;;;;;;;9.30;6.40;;;;;;;22.98;87.57;96818.88;110215;1242;59653;-70
2023/08/28 05:24:36;;;;;;;;;;;;;;;23.06;88.45;96816.34;110159;1245;70573;-66
2023/08/28 05:27:04;;;;;;;8.80;6.00;;;;;;;23.07;88.05;96812.77;110261;1242;69911;-69
2023/08/28 05:29:34;;;;;;;7.60;6.10;;;;;;;23.35;86.32;96802.63;110136;1245;68287;-68
2023/08/28 05:32:03;;;;;;;7.20;5.50;;;;;;;23.73;85.03;96799.67;110175;1241;59719;-69
2023/08/28 05:34:32;;;;;;;7.00;5.10;;;;;;;23.96;82.06;96797.56;110152;1241;59718;-69
2023/08/28 05:37:01;;;;;;;7.70;5.60;;;;;;;24.17;82.52;96796.78;110150;1240;72399;-69
2023/08/28 05:39:30;;;;;;;6.50;5.20;;;;;;;24.30;80.00;96793.73;110193;1244;69166;-68
2023/08/28 05:41:59;;;;;;;;;;;;;;;24.42;77.05;96793.41;110226;1242;69872;-68
2023/08/28 05:44:29;;;;;;;8.30;5.80;;;;;;;24.61;77.78;96794.61;110234;1243;59773;-69
2023/08/28 05:46:59;;;;;;;10.70;5.70;;;;;;;24.85;79.24;96797.08;110165;1241;59710;-68
2023/08/28 05:49:29;;;;;;;6.50;5.50;;;;;;;24.98;75.84;96796.70;110181;1242;71828;-68
2023/08/28 05:51:58;;;;;;;6.10;5.40;;;;;;;25.29;74.50;96797.84;110215;1240;68507;-67
2023/08/28 05:54:27;;;;;;;6.80;5.10;;;;;;;25.67;74.97;96802.75;110162;1242;69343;-68
2023/08/28 05:56:57;;;;;;;7.90;5.80;;;;;;;26.18;76.16;96805.34;110228;1242;59770;-67
2023/08/28 05:59:27;;;;;;;7.80;5.40;;;;;;;26.56;73.71;96813.11;110228;1240;59724;-68
2023/08/28 06:01:55;;;;;;;6.90;5.00;;;;;;;26.83;68.29;96808.98;110215;1243;71816;-68
2023/08/28 06:04:25;;;;;;;10.70;5.50;;;;;;;27.21;71.02;96814.27;110215;1243;69335;-67
2023/08/28 06:06:54;;;;;;;7.60;5.30;;;;;;;27.46;66.30;96814.05;110221;1244;69391;-68
2023/08/28 06:09:23;;;;;;;6.70;5.30;;;;;;;27.67;66.02;96810.59;110233;1242;59743;-68
2023/08/28 06:11:52;;;;;;;7.70;6.10;;;;;;;27.64;64.28;96812.30;110271;1242;59669;-68
2023/08/28 06:14:21;;;;;;;;;;;;;;;27.86;61.58;96808.78;110201;1245;71407;-68
2023/08/28 06:16:52;;;;;;;8.40;5.70;;;;;;;28.13;62.50;96806.45;110230;1242;69613;-66
2023/08/28 06:19:21;;;;;;;6.30;5.70;;;;;;;28.45;61.59;96806.04;110227;1241;68847;-67
2023/08/28 06:21:51;;;;;;;7.60;6.00;;;;;;;28.79;61.72;96805.05;110174;1243;59710;-68
2023/08/28 06:24:19;;;;;;;7.90;6.40;;;;;;;29.11;60.08;96805.77;110251;1245;59685;-68
2023/08/28 06:26:48;;;;;;;7.90;5.90;;;;;;;29.26;56.07;96804.16;110238;1242;71202;-69
2023/08/28 06:29:18;;;;;;;7.80;6.40;;;;;;;29.54;57.13;96808.38;110242;1243;69896;-66
2023/08/28 06:31:47;;;;;;;9.00;6.10;;;;;;;29.83;55.91;96809.13;110158;1246;69771;-65
2023/08/28 06:34:16;;;;;;;6.30;5.70;;;;;;;29.95;53.22;96808.63;110263;1241;59667;-67
2023/08/28 06:36:45;;;;;;;6.40;5.70;;;;;;;30.21;52.31;96808.88;110267;1242;59593;-67
2023/08/28 06:39:15;;;;;;;6.30;5.40;;;;;;;30.36;51.43;96810.52;110188;1242;72337;-67
2023/08/28 06:41:45;;;;;;;5.80;5.20;;;;;;;30.39;49.88;96810.60;110245;1250;70015;-68
2023/08/28 06:44:14;;;;;;;7.90;6.00;;;;;;;30.21;49.45;96810.94;110210;1242;69103;-68
2023/08/28 06:46:43;;;;;;;6.00;5.40;;;;;;;30.59;49.58;96812.13;110274;1244;59744;-69
2023/08/28 06:49:13;;;;;;;6.30;5.40;;;;;;;30.82;48.74;96811.64;110211;1243;59690;-68
2023/08/28 06:51:42;;;;;;;6.70;6.00;;;;;;;30.99;47.94;96810.66;110259;1241;71362;-68
2023/08/28 06:54:11;;;;;;;7.30;5.70;;;;;;;30.99;49.00;96808.12;110190;1241;69806;-68
2023/08/28 06:56:40;;;;;;;7.20;6.00;;;;;;;31.15;49.05;96810.48;110221;1240;69721;-67
2023/08/28 06:59:09;;;;;;;7.80;6.10;;;;;;;31.08;49.03;96808.76;110215;1242;59696;-67
2023/08/28 07:01:38;;;;;;;7.20;5.50;;;;;;;31.01;48.49;96808.03;110202;1244;59755;-67
2023/08/28 07:04:07;;;;;;;7.30;5.60;;;;;;;30.83;47.92;96807.48;109873;1242;464145;-66
2023/08/28 07:06:36;;;;;;;8.30;6.70;;;;;;;31.08;47.50;96808.59;110223;1242;69673;-66
2023/08/28 07:09:05;;;;;;;7.00;5.90;;;;;;;31.30;47.34;96810.17;110163;1242;67407;-69
2023/08/28 07:11:34;;;;;;;7.20;6.00;;;;;;;31.07;46.31;96811.92;110226;1243;59744;-68
2023/08/28 07:14:06;;;;;;;6.60;5.80;;;;;;;30.95;46.14;96812.98;110220;1249;59631;-65
2023/08/28 07:16:35;;;;;;;6.90;6.20;;;;;;;31.39;46.30;96814.52;110223;1242;71683;-66
2023/08/28 07:19:04;;;;;;;5.90;5.30;;;;;;;31.53;45.55;96819.11;110256;1242;69138;-67
2023/08/28 07:21:33;;;;;;;7.10;5.50;;;;;;;31.72;46.70;96817.14;110177;1249;69695;-68
2023/08/28 07:24:03;;;;;;;8.40;5.90;;;;;;;32.33;44.50;96811.79;110229;1242;60082;-68
2023/08/28 07:26:32;;;;;;;7.70;5.60;;;;;;;32.78;43.42;96809.61;110182;1248;59686;-66
2023/08/28 07:29:02;;;;;;;6.80;4.90;;;;;;;33.07;41.67;96810.48;110199;1242;71304;-67
2023/08/28 07:31:31;;;;;;;8.10;5.60;;;;;;;33.46;40.95;96814.23;110198;1242;68310;-67
2023/08/28 07:34:00;;;;;;;5.90;5.20;;;;;;;33.53;40.83;96816.79;110223;1242;68388;-67
2023/08/28 07:36:29;;;;;;;7.50;5.40;;;;;;;33.66;38.64;96816.28;110238;1242;59712;-67
2023/08/28 07:38:58;;;;;;;6.40;5.50;;;;;;;33.55;38.17;96816.01;110223;1242;59722;-67
2023/08/28 07:41:27;;;;;;;6.00;5.30;;;;;;;33.68;38.33;96818.59;110220;1248;71291;-66
2023/08/28 07:43:57;;;;;;;6.60;5.90;;;;;;;33.66;39.09;96816.48;110172;1241;68941;-66
2023/08/28 07:46:28;;;;;;;6.10;5.50;;;;;;;33.51;38.02;96817.66;110156;1247;69583;-67
2023/08/28 07:48:57;;;;;;;7.00;5.70;;;;;;;33.68;37.63;96814.55;110200;1241;60146;-67
2023/08/28 07:51:26;;;;;;;5.80;5.20;;;;;;;33.86;37.57;96813.15;110211;1241;59737;-67
2023/08/28 07:53:55;;;;;;;7.00;5.80;;;;;;;34.21;38.06;96810.46;110160;1248;71314;-66
2023/08/28 07:56:25;;;;;;;5.50;4.90;;;;;;;34.51;38.00;96807.73;110180;1242;70238;-67
2023/08/28 07:58:54;;;;;;;5.30;4.80;;;;;;;34.58;37.55;96806.14;110203;1244;69125;-67
2023/08/28 08:01:23;;;;;;;6.20;5.00;;;;;;;34.50;37.38;96804.97;110199;1242;59786;-67
2023/08/28 08:03:52;;;;;;;5.70;5.00;;;;;;;34.59;36.33;96804.70;110210;1249;59741;-68
2023/08/28 08:06:20;;;;;;;7.10;5.10;;;;;;;34.76;37.68;96802.39;110123;1247;71246;-68
2023/08/28 08:08:51;;;;;;;5.90;5.20;;;;;;;34.98;38.34;96800.73;110197;1242;69274;-68
2023/08/28 08:11:20;;;;;;;5.80;5.20;;;;;;;35.32;37.99;96802.06;110136;1243;69846;-67
2023/08/28 08:13:48;;;;;;;6.60;5.00;;;;;;;35.10;37.57;96802.35;110134;1243;59712;-66
2023/08/28 08:16:19;;;;;;;7.70;5.00;;;;;;;35.48;36.88;96799.39;110178;1243;59727;-68
2023/08/28 08:18:48;;;;;;;6.80;5.20;;;;;;;35.80;36.14;96795.16;110138;1242;71854;-68
2023/08/28 08:21:17;;;;;;;7.50;5.60;;;;;;;35.94;36.00;96788.16;110210;1247;69012;-66
2023/08/28 08:23:47;;;;;;;6.40;5.70;;;;;;;36.31;34.92;96782.63;110165;1243;69942;-65
2023/08/28 08:26:18;;;;;;;5.50;4.90;;;;;;;36.75;35.18;96780.29;110198;1243;59740;-67
2023/08/28 08:28:47;;;;;;;5.40;4.70;;;;;;;37.20;34.67;96778.53;110228;1245;59635;-66
2023/08/28 08:31:16;;;;;;;6.50;5.20;;;;;;;37.73;34.82;96775.20;110209;1241;72400;-67
2023/08/28 08:33:46;;;;;;;7.10;5.60;;;;;;;37.89;32.68;96770.11;110231;1241;69886;-66
2023/08/28 08:36:19;;;;;;;5.50;4.80;;;;;;;37.18;32.13;96768.19;110234;1242;69666;-68
2023/08/28 08:38:48;;;;;;;6.00;4.90;;;;;;;37.16;32.49;96764.20;110205;1240;59675;-67
2023/08/28 08:41:17;;;;;;;7.80;5.40;;;;;;;37.16;33.15;96760.50;110293;1241;59725;-67
2023/08/28 08:43:46;;;;;;;5.90;5.30;;;;;;;37.63;32.68;96763.85;110241;1241;71671;-67
2023/08/28 08:46:17;;;;;;;7.80;5.90;;;;;;;37.60;31.91;96763.07;110266;1243;70620;-67
2023/08/28 08:48:49;;;;;;;8.10;6.20;;;;;;;37.59;32.10;96761.57;110200;1242;69282;-67
2023/08/28 08:51:23;;;;;;;6.90;5.60;;;;;;;38.03;31.96;96761.23;110219;1243;60109;-67
2023/08/28 08:54:04;;;;;;;6.80;5.50;;;;;;;38.10;31.39;96757.36;110240;1241;59622;-67
2023/08/28 08:56:36;;;;;;;10.70;6.30;;;;;;;38.05;31.87;96755.08;110239;1242;71360;-68
2023/08/28 08:59:05;;;;;;;8.30;5.70;;;;;;;38.14;30.93;96751.52;110221;1243;69641;-66
2023/08/28 09:01:37;;;;;;;8.80;5.90;;;;;;;37.97;31.38;96750.05;110096;1247;69271;-67
2023/08/28 09:04:07;;;;;;;6.50;5.60;;;;;;;37.70;31.80;96744.07;110262;1249;59737;-66
2023/08/28 09:06:37;;;;;;;6.90;5.80;;;;;;;38.00;31.91;96739.77;110260;1242;59698;-67
2023/08/28 09:09:09;;;;;;;5.90;5.30;;;;;;;38.26;30.89;96735.77;110213;1242;71700;-67
2023/08/28 09:11:40;;;;;;;7.10;5.90;;;;;;;38.66;30.87;96733.47;110263;1242;70006;-66
2023/08/28 09:14:08;;;;;;;5.40;4.70;;;;;;;38.81;30.26;96730.34;110218;1242;69701;-66
2023/08/28 09:16:39;;;;;;;5.90;5.30;;;;;;;39.02;29.88;96728.41;110256;1243;59755;-66
2023/08/28 09:19:08;;;;;;;5.20;4.70;;;;;;;39.12;29.65;96728.79;110247;1243;59693;-67
2023/08/28 09:21:38;;;;;;;5.90;4.90;;;;;;;39.03;29.33;96723.91;110248;1242;72509;-67
2023/08/28 09:24:08;;;;;;;5.50;4.80;;;;;;;39.25;28.85;96719.61;110172;1242;69565;-67
2023/08/28 09:26:40;;;;;;;5.70;5.20;;;;;;;39.65;28.62;96717.17;110228;1243;69096;-66
2023/08/28 09:29:09;;;;;;;7.40;5.40;;;;;;;40.01;28.96;96712.59;110242;1243;59746;-66
2023/08/28 09:31:40;;;;;;;7.70;5.70;;;;;;;40.33;28.02;96710.21;110269;1242;59686;-67
2023/08/28 09:34:08;;;;;;;6.40;5.60;;;;;;;39.93;27.64;96713.44;110242;1242;71294;-68
2023/08/28 09:36:43;;;;;;;5.10;4.50;;;;;;;40.43;27.56;96709.49;110225;1242;69291;-66
2023/08/28 09:39:13;;;;;;;5.20;4.70;;;;;;;40.96;27.00;96710.41;110218;1242;69284;-67
2023/08/28 09:41:44;;;;;;;5.50;4.20;;;;;;;41.15;26.36;96708.57;110220;1241;59755;-65
2023/08/28 09:44:15;;;;;;;4.50;4.10;;;;;;;41.32;26.10;96703.54;110201;1242;59670;-67
2023/08/28 09:46:45;;;;;;;5.00;4.40;;;;;;;41.54;24.90;96699.66;110186;1242;70869;-66
2023/08/28 09:49:14;;;;;;;4.30;3.90;;;;;;;42.05;25.11;96694.95;110237;1242;68673;-66
2023/08/28 09:51:45;;;;;;;5.70;4.50;;;;;;;41.54;25.51;96692.10;110265;1241;69902;-67
2023/08/28 09:54:15;;;;;;;7.20;5.10;;;;;;;40.74;26.03;96687.66;110258;1242;59756;-66
2023/08/28 09:56:45;;;;;;;5.10;4.40;;;;;;;40.46;26.94;96682.71;110223;1242;59718;-66
2023/08/28 09:59:16;;;;;;;5.40;4.10;;;;;;;40.73;26.76;96678.98;110277;1243;70426;-67
2023/08/28 10:01:47;;;;;;;5.10;3.80;;;;;;;41.44;26.54;96677.13;110231;1242;69199;-66
2023/08/28 10:04:20;;;;;;;6.30;4.80;;;;;;;41.77;26.01;96674.79;110277;1242;70204;-67
2023/08/28 10:06:50;;;;;;;5.90;4.10;;;;;;;41.15;26.09;96677.33;110240;1242;59731;-67
2023/08/28 10:09:22;;;;;;;5.50;5.00;;;;;;;40.98;26.63;96673.76;110148;1245;59724;-67
2023/08/28 10:11:53;;;;;;;4.80;4.30;;;;;;;41.65;26.47;96672.86;110272;1241;70655;-67
2023/08/28 10:14:24;;;;;;;5.80;4.10;;;;;;;42.07;25.96;96670.22;110271;1242;69706;-67
2023/08/28 10:16:59;;;;;;;5.40;4.30;;;;;;;42.41;24.83;96664.54;110221;1249;69739;-67
2023/08/28 10:19:53;;;;;;;6.40;4.50;;;;;;;43.01;25.24;96655.84;110314;1242;59740;-67
2023/08/28 10:22:25;;;;;;;6.20;4.50;;;;;;;43.13;25.12;96656.70;110292;1242;59631;-67
2023/08/28 10:24:57;;;;;;;4.50;4.10;;;;;;;43.37;24.26;96660.99;110264;1241;70456;-67
2023/08/28 10:27:27;;;;;;;4.10;3.70;;;;;;;43.15;23.79;96657.80;110236;1242;69061;-68
2023/08/28 10:29:58;;;;;;;6.20;4.30;;;;;;;43.20;23.77;96658.23;110210;1241;69999;-68
2023/08/28 10:32:27;;;;;;;6.80;4.30;;;;;;;43.32;24.18;96657.81;110257;1241;60172;-68
2023/08/28 10:34:58;;;;;;;4.80;4.30;;;;;;;42.90;23.68;96646.62;110245;1242;59757;-68
2023/08/28 10:37:28;;;;;;;4.90;4.00;;;;;;;43.05;24.23;96644.41;110281;1240;71350;-67
2023/08/28 10:40:01;;;;;;;4.40;4.00;;;;;;;43.05;24.41;96636.86;110225;1247;69668;-67
2023/08/28 10:42:32;;;;;;;7.30;4.50;;;;;;;43.73;24.55;96631.42;110197;1242;69265;-68
2023/08/28 10:45:01;;;;;;;6.00;4.60;;;;;;;44.01;23.26;96623.28;110240;1242;59699;-67
2023/08/28 10:47:30;;;;;;;5.80;4.30;;;;;;;43.68;23.30;96624.91;110213;1240;59691;-67
2023/08/28 10:50:00;;;;;;;5.10;4.00;;;;;;;43.58;23.66;96620.66;110193;1243;71986;-67
2023/08/28 10:52:29;;;;;;;4.80;4.30;;;;;;;43.63;23.78;96618.15;110212;1242;69221;-68
2023/08/28 10:55:06;;;;;;;4.90;4.40;;;;;;;43.40;23.51;96613.68;110222;1248;69575;-67
2023/08/28 10:57:42;;;;;;;6.00;4.90;;;;;;;43.26;23.26;96610.27;110237;1242;59667;-69
2023/08/28 11:00:18;;;;;;;4.30;3.90;;;;;;;43.23;23.94;96609.81;110232;1242;59696;-67
2023/08/28 11:03:03;;;;;;;5.00;4.10;;;;;;;43.54;23.71;96608.66;110222;1242;71330;-67
2023/08/28 11:05:33;;;;;;;6.00;4.10;;;;;;;43.19;23.17;96605.30;110194;1242;69874;-66
2023/08/28 11:08:06;;;;;;;7.10;5.10;;;;;;;43.86;23.28;96602.83;110265;1242;69761;-67
2023/08/28 11:10:41;;;;;;;7.20;4.20;;;;;;;43.84;23.39;96595.05;110286;1243;59692;-66
2023/08/28 11:13:23;;;;;;;4.30;3.70;;;;;;;43.73;24.12;96592.13;110276;1242;59674;-66
2023/08/28 11:16:03;;;;;;;4.60;3.40;;;;;;;44.14;22.81;96584.40;110204;1243;72427;-67
2023/08/28 11:18:37;;;;;;;5.60;4.60;;;;;;;44.34;22.39;96580.02;110257;1242;69518;-68
2023/08/28 11:21:07;;;;;;;4.60;4.20;;;;;;;44.01;23.55;96579.99;110245;1241;67582;-68
2023/08/28 11:23:39;;;;;;;4.10;3.50;;;;;;;44.40;22.79;96578.39;110242;1241;59681;-68
2023/08/28 11:26:13;;;;;;;5.90;3.90;;;;;;;44.52;22.77;96574.55;110216;1249;59687;-68
2023/08/28 11:28:50;;;;;;;4.90;3.90;;;;;;;44.86;21.83;96567.38;110235;1245;71739;-67
2023/08/28 11:31:19;;;;;;;5.90;3.90;;;;;;;44.54;21.07;96561.55;110256;1241;69738;-67
2023/08/28 11:33:49;;;;;;;5.00;3.80;;;;;;;44.58;21.90;96560.39;110217;1242;69106;-67
2023/08/28 11:36:18;;;;;;;5.00;3.70;;;;;;;44.46;22.31;96557.77;110214;1242;59750;-66
2023/08/28 11:38:49;;;;;;;4.50;4.10;;;;;;;44.79;21.21;96554.99;110239;1242;59660;-67
2023/08/28 11:41:17;;;;;;;4.50;4.10;;;;;;;44.57;21.15;96556.05;110238;1241;71952;-69
2023/08/28 11:43:46;;;;;;;4.70;4.10;;;;;;;43.98;21.41;96550.80;110235;1241;69648;-67